Time;durP1;ratioP1;P1;durP2;ratioP2;P2;SDS_P1;SDS_P2;PMS_P1;PMS_P2;Temp;Humidity;BMP_temperature;BMP_pressure;BME280_temperature;BME280_humidity;BME280_pressure;Samples;Min_cycle;Max_cycle;Signal;HPM_P1;HPM_P2
2021/12/01 00:02:03;;;;;;;16.58;3.85;;;5.90;99.90;;;;;;5107678;28;20027;-46
2021/12/01 00:04:29;;;;;;;13.00;3.75;;;5.90;99.90;;;;;;5109394;28;20015;-47
2021/12/01 00:06:54;;;;;;;10.32;3.38;;;5.90;99.90;;;;;;5109588;28;20413;-44
2021/12/01 00:09:20;;;;;;;20.23;3.65;;;5.90;99.90;;;;;;5109524;28;20042;-44
2021/12/01 00:11:45;;;;;;;13.07;4.00;;;5.80;99.90;;;;;;5108877;28;20158;-45
2021/12/01 00:14:11;;;;;;;14.48;3.92;;;5.80;99.90;;;;;;5109703;28;20023;-44
2021/12/01 00:16:37;;;;;;;16.67;4.05;;;5.80;99.90;;;;;;5105821;28;20492;-45
2021/12/01 00:19:02;;;;;;;15.38;3.45;;;5.80;99.90;;;;;;5099633;28;20052;-45
2021/12/01 00:21:28;;;;;;;10.65;3.85;;;5.70;99.90;;;;;;5108622;28;20378;-46
2021/12/01 00:23:54;;;;;;;21.92;4.75;;;5.70;99.90;;;;;;5107934;28;20034;-46
2021/12/01 00:26:19;;;;;;;13.15;3.95;;;5.70;99.90;;;;;;5109136;28;20110;-44
2021/12/01 00:28:45;;;;;;;19.25;4.05;;;5.60;99.90;;;;;;5109317;28;20066;-46
2021/12/01 00:31:11;;;;;;;16.27;4.55;;;5.70;99.90;;;;;;5108680;28;20023;-46
2021/12/01 00:33:36;;;;;;;16.58;4.45;;;5.70;99.90;;;;;;5109122;28;20176;-46
2021/12/01 00:36:03;;;;;;;18.65;4.40;;;5.60;99.90;;;;;;5098048;28;20028;-44
2021/12/01 00:38:30;;;;;;;17.92;3.63;;;5.70;99.90;;;;;;5102842;28;20019;-44
2021/12/01 00:40:56;;;;;;;13.35;3.72;;;5.60;99.90;;;;;;5108329;28;20070;-45
2021/12/01 00:43:24;;;;;;;21.25;4.47;;;5.70;99.90;;;;;;5108730;28;20035;-44
2021/12/01 00:46:10;;;;;;;19.08;4.32;;;5.70;99.90;;;;;;5107784;28;20157;-45
2021/12/01 00:48:36;;;;;;;13.27;4.65;;;5.70;99.90;;;;;;5109227;28;20028;-44
2021/12/01 00:51:02;;;;;;;13.27;3.45;;;5.70;99.90;;;;;;5108592;28;20466;-45
2021/12/01 00:53:27;;;;;;;8.77;3.13;;;5.80;99.90;;;;;;5108946;28;20106;-46
2021/12/01 00:55:53;;;;;;;15.32;4.03;;;5.80;99.90;;;;;;5109113;28;20023;-45
2021/12/01 00:58:20;;;;;;;15.70;3.35;;;5.80;99.90;;;;;;5108913;28;20020;-44
2021/12/01 01:00:49;;;;;;;11.73;3.40;;;5.80;99.90;;;;;;5108150;28;20098;-45
2021/12/01 01:03:16;;;;;;;15.90;3.88;;;5.80;99.90;;;;;;5108795;28;20074;-47
2021/12/01 01:05:41;;;;;;;14.77;4.35;;;5.80;99.90;;;;;;5101729;28;20028;-44
2021/12/01 01:08:08;;;;;;;11.88;3.80;;;5.70;99.90;;;;;;5100347;28;20185;-44
2021/12/01 01:18:39;;;;;;;14.30;3.53;;;5.70;99.90;;;;;;5113064;28;20091;-46
2021/12/01 01:21:06;;;;;;;16.90;3.88;;;5.70;99.90;;;;;;5112131;28;20035;-45
2021/12/01 01:23:33;;;;;;;10.98;3.85;;;5.60;99.90;;;;;;5112959;28;20024;-45
2021/12/01 01:26:00;;;;;;;12.93;3.58;;;5.60;99.90;;;;;;5112824;28;20022;-45
2021/12/01 01:28:26;;;;;;;13.07;2.92;;;5.60;99.90;;;;;;5112689;28;20065;-44
2021/12/01 01:30:53;;;;;;;17.02;4.07;;;5.60;99.90;;;;;;5110683;28;20032;-45
2021/12/01 01:33:20;;;;;;;9.23;3.35;;;5.60;99.90;;;;;;5112430;28;20534;-47
2021/12/01 01:35:45;;;;;;;14.60;3.13;;;5.60;99.90;;;;;;5098972;28;20129;-45
2021/12/01 01:38:11;;;;;;;10.90;3.80;;;5.60;99.90;;;;;;5104235;28;20019;-46
2021/12/01 01:40:37;;;;;;;14.70;3.83;;;5.60;99.90;;;;;;5110566;28;20027;-47
2021/12/01 01:43:04;;;;;;;18.27;3.97;;;5.60;99.90;;;;;;5112479;28;20118;-45
2021/12/01 01:45:29;;;;;;;23.13;4.13;;;5.60;99.90;;;;;;5112234;28;20055;-45
2021/12/01 01:48:00;;;;;;;15.25;3.85;;;5.60;99.90;;;;;;5112340;28;20062;-46
2021/12/01 01:50:38;;;;;;;13.40;3.92;;;5.60;99.90;;;;;;5111461;28;20047;-47
2021/12/01 01:53:16;;;;;;;10.00;3.83;;;5.60;99.90;;;;;;5112227;27;20048;-48
2021/12/01 01:55:47;;;;;;;15.98;3.88;;;5.60;99.90;;;;;;5112012;28;20026;-45
2021/12/01 01:58:16;;;;;;;16.67;4.85;;;5.60;99.90;;;;;;5112231;28;20447;-48
2021/12/01 02:00:49;;;;;;;9.13;4.10;;;5.70;99.90;;;;;;5111326;28;20028;-48
2021/12/01 02:03:15;;;;;;;11.43;4.28;;;5.60;99.90;;;;;;5111915;28;20027;-45
2021/12/01 02:05:41;;;;;;;12.90;3.97;;;5.60;99.90;;;;;;5105997;28;20474;-46
2021/12/01 02:08:16;;;;;;;13.23;4.43;;;5.60;99.90;;;;;;5103499;28;20381;-47
2021/12/01 02:10:48;;;;;;;23.27;5.55;;;5.60;99.90;;;;;;5109860;28;20058;-47
2021/12/01 02:13:15;;;;;;;8.90;3.67;;;5.60;99.90;;;;;;5111965;28;20357;-46
2021/12/01 02:15:43;;;;;;;9.18;4.20;;;5.60;99.90;;;;;;5111549;28;20028;-44
2021/12/01 02:18:09;;;;;;;9.30;3.90;;;5.60;99.90;;;;;;5111605;28;20095;-47
2021/12/01 02:20:35;;;;;;;13.13;3.85;;;5.60;99.90;;;;;;5110762;28;20031;-46
2021/12/01 02:23:00;;;;;;;13.88;4.05;;;5.60;99.90;;;;;;5110886;28;20035;-47
2021/12/01 02:25:27;;;;;;;11.27;3.85;;;5.60;99.90;;;;;;5111738;28;20491;-45
2021/12/01 02:27:52;;;;;;;9.73;3.22;;;5.60;99.90;;;;;;5111733;28;20047;-45
2021/12/01 02:30:18;;;;;;;10.00;3.35;;;5.60;99.90;;;;;;5111214;28;20028;-45
2021/12/01 02:32:44;;;;;;;9.23;3.13;;;5.60;99.90;;;;;;5111477;27;20031;-46
2021/12/01 02:35:10;;;;;;;11.73;3.47;;;5.60;99.90;;;;;;5100088;28;20024;-45
2021/12/01 02:37:40;;;;;;;6.95;2.80;;;5.60;99.90;;;;;;5102706;28;20024;-44
2021/12/01 02:40:07;;;;;;;10.02;2.75;;;5.60;99.90;;;;;;5111119;28;20106;-44
2021/12/01 02:42:32;;;;;;;6.30;2.67;;;5.60;99.90;;;;;;5109499;28;20083;-45
2021/12/01 02:44:58;;;;;;;6.75;3.22;;;5.60;99.90;;;;;;5111268;28;20020;-45
2021/12/01 02:47:28;;;;;;;7.38;2.97;;;5.60;99.90;;;;;;5111482;28;20028;-45
2021/12/01 02:49:55;;;;;;;5.87;2.57;;;5.60;99.90;;;;;;5110685;28;20394;-46
2021/12/01 02:52:22;;;;;;;6.43;3.00;;;5.60;99.90;;;;;;5109085;28;20505;-46
2021/12/01 02:54:49;;;;;;;8.25;2.67;;;5.60;99.90;;;;;;5111080;28;20310;-45
2021/12/01 02:57:15;;;;;;;8.43;2.72;;;5.60;99.90;;;;;;5111024;28;20405;-45
2021/12/01 02:59:41;;;;;;;7.00;3.13;;;5.50;99.90;;;;;;5111141;28;20055;-46
2021/12/01 03:02:08;;;;;;;4.72;2.40;;;5.50;99.90;;;;;;5110588;28;20393;-44
2021/12/01 03:04:35;;;;;;;6.32;2.33;;;5.60;99.90;;;;;;5108592;28;20015;-45
2021/12/01 03:07:02;;;;;;;4.72;2.40;;;5.60;99.90;;;;;;5100382;28;20103;-45
2021/12/01 03:09:28;;;;;;;5.80;2.25;;;5.50;99.90;;;;;;5110925;28;20658;-45
2021/12/01 03:11:54;;;;;;;3.38;2.35;;;5.50;99.90;;;;;;5110264;28;20059;-45
2021/12/01 03:14:20;;;;;;;4.63;2.45;;;5.50;99.90;;;;;;5110998;28;20020;-45
2021/12/01 03:16:48;;;;;;;5.70;2.47;;;5.50;99.90;;;;;;5110710;28;20028;-45
2021/12/01 03:19:15;;;;;;;7.60;3.17;;;5.50;99.90;;;;;;5110344;28;20041;-45
2021/12/01 03:21:42;;;;;;;6.13;3.05;;;5.50;99.90;;;;;;5109756;28;20023;-45
2021/12/01 03:24:08;;;;;;;3.78;1.67;;;5.60;99.90;;;;;;5094847;27;20016;-45
2021/12/01 03:26:34;;;;;;;1.58;1.30;;;5.60;99.90;;;;;;5088514;28;20235;-46
2021/12/01 03:29:03;;;;;;;7.55;2.03;;;5.50;99.90;;;;;;5091367;28;20380;-44
2021/12/01 03:31:29;;;;;;;3.42;1.70;;;5.50;99.90;;;;;;5100330;28;20051;-45
2021/12/01 03:33:55;;;;;;;3.90;1.52;;;5.60;99.90;;;;;;5091630;28;20059;-44
2021/12/01 03:36:20;;;;;;;3.88;1.60;;;5.50;99.90;;;;;;5092811;28;20083;-45
2021/12/01 03:38:47;;;;;;;4.05;1.58;;;5.60;99.90;;;;;;5091102;28;20048;-44
2021/12/01 03:41:13;;;;;;;3.13;1.42;;;5.60;99.90;;;;;;5087099;28;20024;-49
2021/12/01 03:43:38;;;;;;;3.90;1.73;;;5.60;99.90;;;;;;5088024;28;20153;-45
2021/12/01 03:46:04;;;;;;;1.77;1.35;;;5.60;99.90;;;;;;5088327;28;20097;-45
2021/12/01 03:48:30;;;;;;;4.95;2.35;;;5.60;99.90;;;;;;5090112;28;20170;-45
2021/12/01 03:50:56;;;;;;;6.25;1.80;;;5.60;99.90;;;;;;5088734;28;20073;-46
2021/12/01 03:53:23;;;;;;;3.72;1.90;;;5.60;99.90;;;;;;5088902;28;20216;-48
2021/12/01 03:55:50;;;;;;;3.35;2.15;;;5.50;99.90;;;;;;5090739;28;20174;-48
2021/12/01 03:58:16;;;;;;;5.53;2.20;;;5.60;99.90;;;;;;5088180;28;20434;-45
2021/12/01 04:00:43;;;;;;;2.88;2.10;;;5.60;99.90;;;;;;5086686;28;20114;-45
2021/12/01 04:03:08;;;;;;;3.45;1.95;;;5.60;99.90;;;;;;5089162;28;20024;-46
2021/12/01 04:05:35;;;;;;;4.75;3.00;;;5.60;99.90;;;;;;5095344;28;20083;-45
2021/12/01 04:08:01;;;;;;;4.15;2.38;;;5.60;99.90;;;;;;5100995;28;20031;-48
2021/12/01 04:10:28;;;;;;;6.75;2.25;;;5.60;99.90;;;;;;5109334;28;20098;-45
2021/12/01 04:12:54;;;;;;;5.65;2.63;;;5.60;99.90;;;;;;5109692;28;20032;-49
2021/12/01 04:15:20;;;;;;;5.18;2.50;;;5.70;99.90;;;;;;5110164;28;20267;-45
2021/12/01 04:17:47;;;;;;;5.22;3.10;;;5.70;99.90;;;;;;5109665;28;20020;-44
2021/12/01 04:20:17;;;;;;;7.78;3.20;;;5.70;99.90;;;;;;5108757;28;20020;-49
2021/12/01 04:22:44;;;;;;;8.70;3.03;;;5.70;99.90;;;;;;5109463;28;20016;-47
2021/12/01 04:25:10;;;;;;;4.97;2.85;;;5.70;99.90;;;;;;5109258;28;20011;-47
2021/12/01 04:27:37;;;;;;;7.05;3.50;;;5.70;99.90;;;;;;5089964;28;20118;-46
2021/12/01 04:30:05;;;;;;;7.18;3.40;;;5.80;99.90;;;;;;5086511;28;20186;-45
2021/12/01 04:32:31;;;;;;;7.25;3.67;;;5.70;99.90;;;;;;5068704;28;20412;-47
2021/12/01 04:34:57;;;;;;;7.93;3.88;;;5.70;99.90;;;;;;5088128;28;20032;-45
2021/12/01 04:37:24;;;;;;;7.50;3.28;;;5.80;99.90;;;;;;5092431;28;20030;-46
2021/12/01 04:39:50;;;;;;;11.02;4.45;;;5.70;99.90;;;;;;5109052;28;20019;-49
2021/12/01 04:42:16;;;;;;;8.23;3.95;;;5.80;99.90;;;;;;5108221;28;20062;-45
2021/12/01 04:44:43;;;;;;;8.50;4.03;;;5.80;99.90;;;;;;5108809;28;20055;-46
2021/12/01 04:47:12;;;;;;;7.15;3.65;;;5.90;99.90;;;;;;5108883;28;20035;-44
2021/12/01 04:49:39;;;;;;;6.83;3.43;;;5.90;99.90;;;;;;5109195;28;20037;-48
2021/12/01 04:52:06;;;;;;;6.60;3.35;;;5.90;99.90;;;;;;5108200;28;20264;-45
2021/12/01 04:54:33;;;;;;;9.30;3.53;;;6.00;99.90;;;;;;5108843;28;20031;-48
2021/12/01 04:57:01;;;;;;;10.70;3.97;;;6.10;99.90;;;;;;5104478;28;20360;-47
2021/12/01 04:59:26;;;;;;;10.70;4.38;;;6.20;99.90;;;;;;5077438;28;20078;-47
2021/12/01 05:01:53;;;;;;;7.43;3.97;;;6.30;99.90;;;;;;5067130;28;20016;-46
2021/12/01 05:04:20;;;;;;;8.65;3.50;;;6.40;99.90;;;;;;5067570;28;20013;-46
2021/12/01 05:06:46;;;;;;;10.82;4.50;;;6.50;99.90;;;;;;5095240;28;20359;-46
2021/12/01 05:09:12;;;;;;;19.60;5.32;;;6.60;99.90;;;;;;5108100;28;20043;-46
2021/12/01 05:11:37;;;;;;;14.05;5.50;;;6.60;99.90;;;;;;5107563;28;20038;-45
2021/12/01 05:14:03;;;;;;;13.77;7.10;;;6.70;99.90;;;;;;5108491;28;20118;-45
2021/12/01 05:16:29;;;;;;;12.25;6.05;;;6.70;99.90;;;;;;5108825;28;20035;-47
2021/12/01 05:18:55;;;;;;;11.00;5.53;;;6.80;99.90;;;;;;5108839;28;20026;-45
2021/12/01 05:21:21;;;;;;;16.13;7.05;;;6.80;99.90;;;;;;5107818;28;20398;-45
2021/12/01 05:23:47;;;;;;;12.93;6.72;;;6.90;99.90;;;;;;5108641;28;20038;-45
2021/12/01 05:26:13;;;;;;;17.02;8.30;;;7.00;99.90;;;;;;5108638;28;20020;-46
2021/12/01 05:28:40;;;;;;;18.42;8.07;;;7.00;99.90;;;;;;5107435;28;20468;-46
2021/12/01 05:31:06;;;;;;;23.98;8.98;;;7.00;99.90;;;;;;5107889;28;20028;-46
2021/12/01 05:33:32;;;;;;;16.63;7.97;;;7.00;99.90;;;;;;5108579;28;20069;-46
2021/12/01 05:35:58;;;;;;;21.45;9.80;;;7.10;99.90;;;;;;5099944;28;20016;-44
2021/12/01 05:38:25;;;;;;;28.15;10.98;;;7.10;99.90;;;;;;5101744;28;20020;-45
2021/12/01 05:40:50;;;;;;;29.60;10.68;;;7.20;99.90;;;;;;5107938;28;20020;-46
2021/12/01 05:43:17;;;;;;;25.38;9.68;;;7.20;99.90;;;;;;5108086;28;20023;-45
2021/12/01 05:45:45;;;;;;;29.25;11.10;;;7.20;99.90;;;;;;5108587;28;20069;-45
2021/12/01 05:48:11;;;;;;;29.45;11.75;;;7.20;99.90;;;;;;5108757;28;20388;-46
2021/12/01 05:50:36;;;;;;;28.98;12.45;;;7.20;99.90;;;;;;5107570;28;20027;-45
2021/12/01 05:53:03;;;;;;;24.88;11.30;;;7.30;99.90;;;;;;5106988;28;20028;-46
2021/12/01 05:55:29;;;;;;;21.15;9.90;;;7.30;99.90;;;;;;5107902;28;20364;-45
2021/12/01 05:57:54;;;;;;;24.33;10.95;;;7.30;99.90;;;;;;5109995;28;20106;-44
2021/12/01 06:00:20;;;;;;;27.48;11.25;;;7.30;99.90;;;;;;5111325;28;20077;-49
2021/12/01 06:02:50;;;;;;;21.30;9.35;;;7.30;99.90;;;;;;5111934;28;20497;-49
2021/12/01 06:05:20;;;;;;;24.40;9.07;;;7.30;99.90;;;;;;5109042;28;20015;-45
2021/12/01 06:07:46;;;;;;;20.85;7.78;;;7.30;99.90;;;;;;5103176;28;20012;-46
2021/12/01 06:10:12;;;;;;;14.07;7.20;;;7.40;99.90;;;;;;5111084;28;20094;-46
2021/12/01 06:12:40;;;;;;;14.45;7.35;;;7.30;99.90;;;;;;5111540;27;20043;-46
2021/12/01 06:15:07;;;;;;;15.98;6.75;;;7.40;99.90;;;;;;5111659;28;20107;-45
2021/12/01 06:17:34;;;;;;;17.90;6.38;;;7.40;99.90;;;;;;5110154;28;20401;-45
2021/12/01 06:20:00;;;;;;;11.45;5.90;;;7.30;99.90;;;;;;5097623;28;20099;-46
2021/12/01 06:22:26;;;;;;;12.57;6.10;;;7.30;99.90;;;;;;5094064;28;20364;-47
2021/12/01 06:24:51;;;;;;;9.40;4.80;;;7.30;99.90;;;;;;5102831;28;20020;-46
2021/12/01 06:27:17;;;;;;;6.47;4.45;;;7.30;99.90;;;;;;5089356;28;20508;-47
2021/12/01 06:29:43;;;;;;;6.45;4.00;;;7.30;99.90;;;;;;5073498;28;20024;-46
2021/12/01 06:32:09;;;;;;;6.32;3.70;;;7.30;99.90;;;;;;5086237;28;20078;-46
2021/12/01 06:34:34;;;;;;;4.68;3.60;;;7.30;99.90;;;;;;5088934;28;20036;-47
2021/12/01 06:37:00;;;;;;;7.22;3.63;;;7.30;99.90;;;;;;5100608;28;20106;-46
2021/12/01 06:39:26;;;;;;;10.40;4.18;;;7.30;99.90;;;;;;5087149;28;20119;-46
2021/12/01 06:41:54;;;;;;;4.97;3.13;;;7.30;99.90;;;;;;5085394;28;20032;-45
2021/12/01 06:44:20;;;;;;;4.85;2.95;;;7.40;99.90;;;;;;5068198;28;20033;-46
2021/12/01 06:46:46;;;;;;;3.97;2.78;;;7.30;99.90;;;;;;5069674;28;20028;-45
2021/12/01 06:49:12;;;;;;;4.30;3.17;;;7.40;99.90;;;;;;5069970;28;20040;-48
2021/12/01 06:51:37;;;;;;;5.68;3.00;;;7.30;99.90;;;;;;5067534;28;20021;-46
2021/12/01 06:54:03;;;;;;;5.25;3.30;;;7.30;99.90;;;;;;5078869;28;20095;-47
2021/12/01 06:56:29;;;;;;;5.40;3.17;;;7.30;99.90;;;;;;5092067;28;20393;-45
2021/12/01 06:58:54;;;;;;;4.07;2.70;;;7.40;99.90;;;;;;5094972;28;20024;-45
2021/12/01 07:01:20;;;;;;;5.25;2.90;;;7.40;99.90;;;;;;5096307;28;20020;-46
2021/12/01 07:03:46;;;;;;;7.85;3.20;;;7.30;99.90;;;;;;5099364;28;20063;-48
2021/12/01 07:06:12;;;;;;;9.35;3.10;;;7.30;99.90;;;;;;5094758;28;20024;-46
2021/12/01 07:08:38;;;;;;;5.18;2.88;;;7.30;99.90;;;;;;5093803;27;20028;-45
2021/12/01 07:11:04;;;;;;;5.32;3.08;;;7.40;99.90;;;;;;5088166;28;20556;-46
2021/12/01 07:13:32;;;;;;;2.78;2.42;;;7.30;99.90;;;;;;5088704;28;20110;-47
2021/12/01 07:15:58;;;;;;;4.07;2.60;;;7.40;99.90;;;;;;5078926;28;20741;-45
2021/12/01 07:18:24;;;;;;;3.63;2.60;;;7.40;99.90;;;;;;5083452;28;20028;-45
2021/12/01 07:20:50;;;;;;;4.75;3.17;;;7.30;99.90;;;;;;5068653;28;20024;-46
2021/12/01 07:23:15;;;;;;;4.38;2.50;;;7.30;99.90;;;;;;5069728;28;20596;-46
2021/12/01 07:25:41;;;;;;;6.28;2.42;;;7.30;99.90;;;;;;5091036;28;20023;-47
2021/12/01 07:28:07;;;;;;;2.95;2.65;;;7.20;99.90;;;;;;5098107;28;20077;-48
2021/12/01 07:30:35;;;;;;;2.88;2.55;;;7.30;99.90;;;;;;5085803;28;20028;-44
2021/12/01 07:33:01;;;;;;;3.05;2.63;;;7.30;99.90;;;;;;5082846;28;20020;-45
2021/12/01 07:35:27;;;;;;;4.82;2.42;;;7.30;99.90;;;;;;5092794;28;20100;-45
2021/12/01 07:37:53;;;;;;;5.15;2.60;;;7.30;99.90;;;;;;5101745;28;20139;-45
2021/12/01 07:40:19;;;;;;;3.65;2.67;;;7.30;99.90;;;;;;5088984;28;20371;-44
2021/12/01 07:42:45;;;;;;;3.03;2.30;;;7.20;99.90;;;;;;5080451;28;20524;-45
2021/12/01 07:45:11;;;;;;;5.28;2.25;;;7.20;99.90;;;;;;5089546;28;20020;-44
2021/12/01 07:47:37;;;;;;;3.20;2.13;;;7.20;99.90;;;;;;5070897;28;20021;-45
2021/12/01 07:50:07;;;;;;;6.13;2.72;;;7.20;99.90;;;;;;5083369;28;20085;-47
2021/12/01 07:52:33;;;;;;;4.13;2.55;;;7.10;99.90;;;;;;5072142;28;20526;-45
2021/12/01 07:54:59;;;;;;;2.83;2.30;;;7.10;99.90;;;;;;5075522;28;20124;-44
2021/12/01 07:57:25;;;;;;;3.28;2.38;;;7.20;99.90;;;;;;5089745;28;20032;-45
2021/12/01 07:59:50;;;;;;;4.45;2.13;;;7.20;99.90;;;;;;5080892;28;20491;-46
2021/12/01 08:02:16;;;;;;;5.72;2.40;;;7.10;99.90;;;;;;5076658;28;20103;-45
2021/12/01 08:04:42;;;;;;;3.20;2.63;;;7.10;99.90;;;;;;5091873;28;20270;-44
2021/12/01 08:07:08;;;;;;;2.72;2.03;;;7.20;99.90;;;;;;5095882;28;20034;-44
2021/12/01 08:09:33;;;;;;;2.22;2.03;;;7.20;99.90;;;;;;5087260;28;20039;-44
2021/12/01 08:11:59;;;;;;;3.80;2.08;;;7.10;99.90;;;;;;5078088;28;20505;-44
2021/12/01 08:14:25;;;;;;;3.08;2.00;;;7.20;99.90;;;;;;5069668;28;20032;-46
2021/12/01 08:16:51;;;;;;;1.70;1.60;;;7.20;99.90;;;;;;5085126;28;20310;-48
2021/12/01 08:19:17;;;;;;;1.75;1.45;;;7.20;99.90;;;;;;5102472;28;20020;-45
2021/12/01 08:21:47;;;;;;;1.63;1.50;;;7.30;99.90;;;;;;5075116;28;20166;-45
2021/12/01 08:24:14;;;;;;;1.50;1.40;;;7.50;99.90;;;;;;5068691;28;20020;-45
2021/12/01 08:26:41;;;;;;;2.00;1.52;;;7.60;99.90;;;;;;5079110;28;20073;-45
2021/12/01 08:29:07;;;;;;;1.75;1.50;;;7.70;99.90;;;;;;5087781;28;20028;-45
2021/12/01 08:31:32;;;;;;;1.63;1.52;;;7.70;99.90;;;;;;5095912;28;20391;-46
2021/12/01 08:33:58;;;;;;;2.10;1.70;;;7.80;99.90;;;;;;5085176;28;20035;-46
2021/12/01 08:36:24;;;;;;;2.40;1.50;;;7.90;99.90;;;;;;5092952;28;20391;-45
2021/12/01 08:38:49;;;;;;;1.45;1.30;;;7.90;99.90;;;;;;5099298;28;20015;-48
2021/12/01 08:41:16;;;;;;;2.08;1.50;;;8.00;99.90;;;;;;5098768;28;20042;-44
2021/12/01 08:43:42;;;;;;;1.83;1.30;;;8.00;99.90;;;;;;5075973;28;20056;-45
2021/12/01 08:46:09;;;;;;;3.03;1.30;;;8.10;99.90;;;;;;5077224;28;20076;-45
2021/12/01 08:48:36;;;;;;;2.13;1.90;;;8.10;99.90;;;;;;5073979;28;20028;-45
2021/12/01 08:51:03;;;;;;;1.60;1.45;;;8.10;99.90;;;;;;5084992;28;20036;-45
2021/12/01 08:53:30;;;;;;;1.77;1.60;;;8.10;99.90;;;;;;5088478;28;20039;-45
2021/12/01 08:55:57;;;;;;;1.95;1.50;;;8.10;99.90;;;;;;5087874;28;20385;-46
2021/12/01 08:58:23;;;;;;;1.73;1.60;;;8.00;99.90;;;;;;5082710;28;20478;-46
2021/12/01 09:00:49;;;;;;;2.05;1.60;;;8.10;99.90;;;;;;5086956;28;20032;-45
2021/12/01 09:03:17;;;;;;;1.40;1.30;;;8.10;99.90;;;;;;5088965;28;20012;-45
2021/12/01 09:05:44;;;;;;;2.53;1.95;;;8.10;99.90;;;;;;5087438;28;20066;-46
2021/12/01 09:08:11;;;;;;;2.17;1.42;;;8.10;99.90;;;;;;5097017;28;20023;-47
2021/12/01 09:10:37;;;;;;;3.60;1.67;;;8.10;99.90;;;;;;5087725;28;20047;-47
2021/12/01 09:13:04;;;;;;;1.55;1.25;;;8.20;99.90;;;;;;5069353;28;20029;-46
2021/12/01 09:15:29;;;;;;;2.10;1.50;;;8.20;99.90;;;;;;5068319;28;20099;-46
2021/12/01 09:17:57;;;;;;;2.17;1.35;;;8.20;99.90;;;;;;5067841;28;20081;-46
2021/12/01 09:20:23;;;;;;;2.10;1.15;;;8.20;99.90;;;;;;5086821;28;20077;-46
2021/12/01 09:22:48;;;;;;;1.70;1.20;;;8.20;99.90;;;;;;5073715;28;20107;-46
2021/12/01 09:25:14;;;;;;;1.48;1.20;;;8.20;99.90;;;;;;5066347;28;20093;-45
2021/12/01 09:27:40;;;;;;;1.15;0.98;;;8.20;99.90;;;;;;5086577;28;20131;-46
2021/12/01 09:30:07;;;;;;;1.95;0.90;;;8.20;99.90;;;;;;5085144;28;20046;-46
2021/12/01 09:32:37;;;;;;;1.20;1.00;;;8.20;99.90;;;;;;5090154;28;20032;-45
2021/12/01 09:35:04;;;;;;;2.17;1.20;;;8.30;99.90;;;;;;5087741;28;20028;-45
2021/12/01 09:37:29;;;;;;;1.58;0.90;;;8.20;99.90;;;;;;5096515;28;20066;-45
2021/12/01 09:39:55;;;;;;;1.60;0.85;;;8.30;99.90;;;;;;5102443;28;20105;-47
2021/12/01 09:42:21;;;;;;;2.50;1.02;;;8.20;99.90;;;;;;5091228;28;20035;-46
2021/12/01 09:44:49;;;;;;;4.18;0.95;;;8.30;99.90;;;;;;5077200;28;20429;-47
2021/12/01 09:47:19;;;;;;;0.98;0.90;;;8.20;99.90;;;;;;5070321;28;20497;-45
2021/12/01 09:49:45;;;;;;;3.83;1.23;;;8.30;99.90;;;;;;5071668;28;20039;-47
2021/12/01 09:52:11;;;;;;;3.78;1.15;;;8.30;99.90;;;;;;5073614;28;20146;-46
2021/12/01 09:54:38;;;;;;;0.60;0.60;;;8.30;99.90;;;;;;5091917;28;20058;-45
2021/12/01 09:57:05;;;;;;;0.93;0.80;;;8.30;99.90;;;;;;5071998;28;20485;-46
2021/12/01 09:59:30;;;;;;;1.20;0.70;;;8.40;99.90;;;;;;5086717;28;20461;-46
2021/12/01 10:01:56;;;;;;;1.17;0.93;;;8.50;99.90;;;;;;5078463;28;20067;-45
2021/12/01 10:04:24;;;;;;;1.90;0.85;;;8.50;99.90;;;;;;5070016;28;20039;-45
2021/12/01 10:06:49;;;;;;;0.80;0.80;;;8.60;99.90;;;;;;5095403;28;20023;-46
2021/12/01 10:09:18;;;;;;;1.67;0.80;;;8.60;99.90;;;;;;5099011;28;20058;-45
2021/12/01 10:11:44;;;;;;;1.10;0.70;;;8.60;99.90;;;;;;5090022;28;20032;-47
2021/12/01 10:14:18;;;;;;;0.75;0.75;;;8.50;99.90;;;;;;5077705;28;20032;-44
2021/12/01 10:16:46;;;;;;;1.00;0.80;;;8.50;99.90;;;;;;5096512;28;20051;-48
2021/12/01 10:19:16;;;;;;;0.95;0.80;;;8.50;99.90;;;;;;5085278;28;20471;-45
2021/12/01 10:21:48;;;;;;;1.13;1.00;;;8.60;99.90;;;;;;5089497;28;20028;-45
2021/12/01 10:24:14;;;;;;;1.88;1.38;;;8.60;99.90;;;;;;5090552;28;20024;-45
2021/12/01 10:27:01;;;;;;;2.42;1.05;;;8.60;99.90;;;;;;5069545;28;20085;-47
2021/12/01 10:29:48;;;;;;;1.30;0.90;;;8.70;99.90;;;;;;5076765;28;20038;-45
2021/12/01 10:32:18;;;;;;;1.42;0.90;;;8.70;99.90;;;;;;5076000;28;20032;-44
2021/12/01 10:34:47;;;;;;;1.30;1.00;;;8.60;99.90;;;;;;5071245;28;20029;-45
2021/12/01 10:37:29;;;;;;;2.47;0.90;;;8.60;99.90;;;;;;5090910;28;20144;-45
2021/12/01 10:40:12;;;;;;;1.63;1.20;;;8.60;99.90;;;;;;5089736;28;20171;-46
2021/12/01 10:42:56;;;;;;;1.05;0.95;;;8.60;99.90;;;;;;5071474;28;20028;-46
2021/12/01 10:45:28;;;;;;;1.38;1.05;;;8.60;99.90;;;;;;5079419;28;20095;-46
2021/12/01 10:47:55;;;;;;;3.08;0.88;;;8.60;99.90;;;;;;5093259;28;20023;-45
2021/12/01 10:50:24;;;;;;;1.13;1.00;;;8.60;99.90;;;;;;5091282;28;20052;-45
2021/12/01 10:52:53;;;;;;;1.05;0.95;;;8.60;99.90;;;;;;5084873;28;20058;-46
2021/12/01 10:55:21;;;;;;;1.63;0.98;;;8.60;99.90;;;;;;5070543;28;20363;-45
2021/12/01 10:57:48;;;;;;;2.45;0.90;;;8.60;99.90;;;;;;5084234;28;20024;-46
2021/12/01 11:00:43;;;;;;;2.50;1.00;;;8.50;99.90;;;;;;5100657;28;20111;-47
2021/12/01 11:03:15;;;;;;;1.48;0.90;;;8.60;99.90;;;;;;5089874;28;20436;-46
2021/12/01 11:05:49;;;;;;;1.73;0.93;;;8.60;99.90;;;;;;5083440;28;20070;-46
2021/12/01 11:08:19;;;;;;;2.47;1.02;;;8.60;99.90;;;;;;5091570;28;20393;-46
2021/12/01 11:10:50;;;;;;;0.65;0.65;;;8.50;99.90;;;;;;5089230;28;20066;-45
2021/12/01 11:13:18;;;;;;;1.23;0.70;;;8.60;99.90;;;;;;5073263;28;20032;-46
2021/12/01 11:15:50;;;;;;;1.17;0.82;;;8.70;99.90;;;;;;5075997;28;20024;-45
2021/12/01 11:18:18;;;;;;;1.48;0.88;;;8.70;99.90;;;;;;5087843;28;20319;-44
2021/12/01 11:20:48;;;;;;;1.05;0.95;;;8.70;99.90;;;;;;5087703;28;20649;-45
2021/12/01 11:23:14;;;;;;;1.35;0.90;;;8.60;99.90;;;;;;5096049;28;20089;-46
2021/12/01 11:25:40;;;;;;;1.83;1.10;;;8.60;99.90;;;;;;5095212;28;20398;-45
2021/12/01 11:28:13;;;;;;;0.80;0.80;;;8.70;99.90;;;;;;5099190;28;20421;-45
2021/12/01 11:30:40;;;;;;;5.15;1.25;;;8.70;99.90;;;;;;5098182;28;20020;-45
2021/12/01 11:33:07;;;;;;;1.33;1.00;;;8.70;99.90;;;;;;5095150;27;20019;-48
2021/12/01 11:35:33;;;;;;;1.92;0.85;;;8.70;99.90;;;;;;5097579;28;20610;-48
2021/12/01 11:37:58;;;;;;;1.13;1.02;;;8.70;99.90;;;;;;5101966;28;20033;-47
2021/12/01 11:40:29;;;;;;;1.75;1.17;;;8.70;99.90;;;;;;5089181;28;20028;-45
2021/12/01 11:42:56;;;;;;;1.50;0.93;;;8.70;99.90;;;;;;5086623;28;20077;-45
2021/12/01 11:45:22;;;;;;;2.20;1.30;;;8.70;99.90;;;;;;5086130;28;20482;-46
2021/12/01 11:47:49;;;;;;;3.08;1.65;;;8.80;99.90;;;;;;5080750;28;20163;-46
2021/12/01 11:50:20;;;;;;;0.95;0.90;;;8.90;99.90;;;;;;5091309;28;20028;-46
2021/12/01 11:53:04;;;;;;;;;;;8.80;99.90;;;;;;5095414;28;20016;-47
2021/12/01 11:56:14;;;;;;;4.05;1.20;;;8.80;99.90;;;;;;5096369;28;20365;-48
2021/12/01 11:59:00;;;;;;;1.42;1.10;;;8.80;99.90;;;;;;5086251;28;20123;-45
2021/12/01 12:01:26;;;;;;;3.13;0.95;;;8.90;99.90;;;;;;5068526;28;20024;-45
2021/12/01 12:03:54;;;;;;;0.82;0.82;;;9.00;99.90;;;;;;5082449;28;20074;-45
2021/12/01 12:06:21;;;;;;;1.73;1.20;;;9.10;99.90;;;;;;5091694;28;20102;-46
2021/12/01 12:08:53;;;;;;;4.53;1.08;;;9.30;99.90;;;;;;5096804;28;20196;-46
2021/12/01 12:11:42;;;;;;;3.28;1.20;;;9.30;99.90;;;;;;5092515;28;20019;-44
2021/12/01 12:14:17;;;;;;;6.57;1.58;;;9.30;99.90;;;;;;5095011;28;20052;-45
2021/12/01 12:17:03;;;;;;;1.58;1.30;;;9.30;99.90;;;;;;5092323;28;20070;-47
2021/12/01 12:19:44;;;;;;;2.05;1.20;;;9.40;99.90;;;;;;5079525;28;20505;-45
2021/12/01 12:22:12;;;;;;;4.78;1.40;;;9.50;99.90;;;;;;5083687;28;20024;-47
2021/12/01 12:25:08;;;;;;;1.45;1.20;;;9.50;99.90;;;;;;5090428;28;20166;-45
2021/12/01 12:27:33;;;;;;;2.22;1.15;;;9.50;99.90;;;;;;5088872;28;20016;-45
2021/12/01 12:30:04;;;;;;;3.17;1.30;;;9.50;99.90;;;;;;5084696;28;20273;-47
2021/12/01 12:32:30;;;;;;;2.05;1.27;;;9.40;99.90;;;;;;5088204;28;20028;-46
2021/12/01 12:35:00;;;;;;;3.30;1.33;;;9.30;99.90;;;;;;5088862;28;20515;-46
2021/12/01 12:37:31;;;;;;;1.42;1.10;;;9.40;99.90;;;;;;5093490;28;20430;-45
2021/12/01 12:39:58;;;;;;;2.90;1.00;;;9.50;99.90;;;;;;5094384;28;20068;-45
2021/12/01 12:42:25;;;;;;;1.02;0.70;;;9.60;99.90;;;;;;5079251;28;20024;-46
2021/12/01 12:44:53;;;;;;;2.45;1.08;;;9.50;99.90;;;;;;5071230;28;20266;-49
2021/12/01 12:47:39;;;;;;;2.63;0.80;;;9.50;99.90;;;;;;5067441;28;20029;-47
2021/12/01 12:50:14;;;;;;;4.50;0.80;;;9.60;99.90;;;;;;5098381;28;20468;-46
2021/12/01 12:52:42;;;;;;;2.47;0.80;;;9.60;99.90;;;;;;5087430;28;20393;-45
2021/12/01 12:55:23;;;;;;;0.70;0.70;;;9.60;99.90;;;;;;5085837;28;20051;-45
2021/12/01 12:57:58;;;;;;;1.08;0.75;;;9.60;99.90;;;;;;5087854;28;20028;-46
2021/12/01 13:00:49;;;;;;;2.85;0.98;;;9.50;99.90;;;;;;5095576;28;20016;-44
2021/12/01 13:03:22;;;;;;;2.25;0.98;;;9.50;99.90;;;;;;5087776;28;20039;-45
2021/12/01 13:05:49;;;;;;;2.83;1.00;;;9.40;99.90;;;;;;5082582;28;20063;-45
2021/12/01 13:08:30;;;;;;;2.63;1.00;;;9.40;99.90;;;;;;5073048;28;20287;-45